Time;durP1;ratioP1;P1;durP2;ratioP2;P2;SDS_P1;SDS_P2;PMS_P1;PMS_P2;Temp;Humidity;BMP_temperature;BMP_pressure;BME280_temperature;BME280_humidity;BME280_pressure;Samples;Min_cycle;Max_cycle;Signal;HPM_P1;HPM_P2
2023/06/14 00:01:38;;;;;;;10.25;4.85;;;;;;;;;;5094420;28;20105;-85
2023/06/14 00:04:05;;;;;;;5.82;4.57;;;;;;;;;;5093946;28;20052;-84
2023/06/14 00:06:33;;;;;;;6.40;5.03;;;;;;;;;;5093725;28;20450;-85
2023/06/14 00:09:01;;;;;;;7.75;4.95;;;;;;;;;;5093274;28;20047;-85
2023/06/14 00:11:30;;;;;;;7.80;5.15;;;;;;;;;;5093725;28;20040;-85
2023/06/14 00:13:57;;;;;;;7.78;4.70;;;;;;;;;;5094725;28;20048;-84
2023/06/14 00:16:25;;;;;;;6.53;5.22;;;;;;;;;;5093342;28;20455;-83
2023/06/14 00:18:52;;;;;;;6.40;4.60;;;;;;;;;;5093144;28;20083;-85
2023/06/14 00:21:20;;;;;;;6.10;4.75;;;;;;;;;;5094034;28;20079;-85
2023/06/14 00:23:47;;;;;;;7.43;4.78;;;;;;;;;;5092477;28;20048;-83
2023/06/14 00:26:14;;;;;;;6.43;4.95;;;;;;;;;;5093305;28;20082;-84
2023/06/14 00:28:42;;;;;;;8.07;5.05;;;;;;;;;;5093378;28;20063;-85
2023/06/14 00:31:09;;;;;;;8.90;5.00;;;;;;;;;;5092076;28;20054;-85
2023/06/14 00:33:36;;;;;;;7.15;5.00;;;;;;;;;;5093016;28;20143;-84
2023/06/14 00:36:04;;;;;;;6.47;5.35;;;;;;;;;;5091864;28;20044;-85
2023/06/14 00:38:31;;;;;;;6.25;5.07;;;;;;;;;;5094020;28;20052;-85
2023/06/14 00:40:58;;;;;;;5.88;4.93;;;;;;;;;;5092671;28;20078;-84
2023/06/14 00:43:26;;;;;;;6.50;5.78;;;;;;;;;;5092691;28;20048;-85
2023/06/14 00:45:53;;;;;;;8.65;5.57;;;;;;;;;;5093606;28;20097;-84
2023/06/14 00:48:20;;;;;;;13.52;5.30;;;;;;;;;;5092354;28;20078;-85
2023/06/14 00:50:48;;;;;;;8.63;5.85;;;;;;;;;;5092479;28;20056;-84
2023/06/14 00:53:17;;;;;;;6.50;5.50;;;;;;;;;;5093074;28;20058;-84
2023/06/14 00:55:44;;;;;;;6.75;5.55;;;;;;;;;;5092463;28;20454;-84
2023/06/14 00:58:12;;;;;;;6.45;5.40;;;;;;;;;;5092629;28;20056;-84
2023/06/14 01:00:39;;;;;;;6.95;5.75;;;;;;;;;;5092291;28;20064;-84
2023/06/14 01:03:07;;;;;;;6.57;5.45;;;;;;;;;;5092270;28;20165;-83
2023/06/14 01:05:35;;;;;;;5.10;4.75;;;;;;;;;;5093200;28;20485;-84
2023/06/14 01:08:22;;;;;;;6.53;5.65;;;;;;;;;;5092592;28;20129;-85
2023/06/14 01:11:12;;;;;;;11.02;5.53;;;;;;;;;;5093096;28;20052;-85
2023/06/14 01:13:40;;;;;;;8.52;5.82;;;;;;;;;;5106493;28;20507;-84
2023/06/14 01:16:08;;;;;;;5.40;4.90;;;;;;;;;;5093472;28;20443;-84
2023/06/14 01:18:36;;;;;;;7.10;5.78;;;;;;;;;;5093283;28;20047;-84
2023/06/14 01:21:05;;;;;;;5.95;5.45;;;;;;;;;;5092107;28;20055;-84
2023/06/14 01:23:33;;;;;;;8.88;5.95;;;;;;;;;;5091517;28;20555;-84
2023/06/14 01:26:03;;;;;;;10.40;6.28;;;;;;;;;;5091845;28;20518;-84
2023/06/14 01:28:33;;;;;;;6.82;5.78;;;;;;;;;;5093439;28;20044;-84
2023/06/14 01:31:03;;;;;;;6.18;5.57;;;;;;;;;;5091857;28;20138;-84
2023/06/14 01:33:31;;;;;;;12.63;5.65;;;;;;;;;;5092237;28;20131;-85
2023/06/14 01:35:59;;;;;;;7.93;5.88;;;;;;;;;;5093154;28;20570;-84
2023/06/14 01:38:27;;;;;;;6.75;5.97;;;;;;;;;;5091871;28;20048;-85
2023/06/14 01:40:55;;;;;;;7.32;6.20;;;;;;;;;;5091773;28;20056;-84
2023/06/14 01:43:23;;;;;;;7.53;6.15;;;;;;;;;;5092878;28;20550;-84
2023/06/14 01:45:51;;;;;;;6.85;6.03;;;;;;;;;;5091909;28;20066;-85
2023/06/14 01:48:21;;;;;;;10.25;7.43;;;;;;;;;;5091875;28;20068;-85
2023/06/14 01:50:49;;;;;;;8.32;6.40;;;;;;;;;;5091647;28;20071;-84
2023/06/14 01:53:17;;;;;;;13.38;6.22;;;;;;;;;;5092974;28;20058;-85
2023/06/14 01:55:44;;;;;;;9.73;6.00;;;;;;;;;;5091750;28;20484;-84
2023/06/14 01:58:11;;;;;;;8.98;6.22;;;;;;;;;;5091743;28;20052;-84
2023/06/14 02:00:38;;;;;;;10.35;6.47;;;;;;;;;;5091522;28;20492;-84
2023/06/14 02:03:06;;;;;;;9.85;6.63;;;;;;;;;;5091524;28;20055;-85
2023/06/14 02:05:34;;;;;;;8.60;6.70;;;;;;;;;;5091477;28;20056;-86
2023/06/14 02:08:02;;;;;;;6.97;6.20;;;;;;;;;;5091373;28;20054;-86
2023/06/14 02:10:29;;;;;;;9.35;6.07;;;;;;;;;;5091636;28;20048;-86
2023/06/14 02:12:57;;;;;;;10.25;7.05;;;;;;;;;;5091039;28;20451;-85
2023/06/14 02:15:24;;;;;;;15.18;6.10;;;;;;;;;;5091367;28;20063;-85
2023/06/14 02:17:51;;;;;;;8.48;6.10;;;;;;;;;;5091618;28;20067;-85
2023/06/14 02:20:19;;;;;;;6.97;6.10;;;;;;;;;;5092199;28;20063;-85
2023/06/14 02:22:46;;;;;;;14.50;6.90;;;;;;;;;;5090482;28;20500;-86
2023/06/14 02:25:13;;;;;;;7.82;6.07;;;;;;;;;;5091873;28;20160;-85
2023/06/14 02:27:40;;;;;;;7.18;6.30;;;;;;;;;;5091854;28;20441;-86
2023/06/14 02:30:08;;;;;;;7.53;6.82;;;;;;;;;;5093238;28;20047;-85
2023/06/14 02:32:35;;;;;;;8.15;6.93;;;;;;;;;;5090601;28;20085;-85
2023/06/14 02:35:03;;;;;;;10.40;7.65;;;;;;;;;;5091437;28;20109;-86
2023/06/14 02:37:31;;;;;;;10.90;7.60;;;;;;;;;;5092441;28;20434;-86
2023/06/14 02:39:59;;;;;;;7.35;6.50;;;;;;;;;;5091465;28;20094;-86
2023/06/14 02:42:26;;;;;;;9.93;6.60;;;;;;;;;;5090956;28;20048;-86
2023/06/14 02:44:53;;;;;;;7.35;6.65;;;;;;;;;;5091109;28;20089;-86
2023/06/14 02:47:20;;;;;;;11.30;7.45;;;;;;;;;;5092212;28;20553;-85
2023/06/14 02:49:48;;;;;;;10.85;6.75;;;;;;;;;;5091218;28;20048;-85
2023/06/14 02:52:15;;;;;;;8.07;7.28;;;;;;;;;;5092175;28;20040;-86
2023/06/14 02:54:42;;;;;;;11.35;6.78;;;;;;;;;;5091172;28;20462;-86
2023/06/14 02:57:10;;;;;;;8.77;7.13;;;;;;;;;;5091351;28;20044;-85
2023/06/14 02:59:38;;;;;;;7.05;6.35;;;;;;;;;;5092326;28;20206;-86
2023/06/14 03:02:05;;;;;;;7.50;6.53;;;;;;;;;;5094242;28;20052;-86
2023/06/14 03:04:36;;;;;;;11.35;6.88;;;;;;;;;;5094564;28;20048;-85
2023/06/14 03:07:10;;;;;;;9.98;6.57;;;;;;;;;;5094771;28;20139;-85
2023/06/14 03:09:37;;;;;;;;;;;;;;;;;;5096204;28;20507;-86
2023/06/14 03:12:09;;;;;;;7.40;6.65;;;;;;;;;;5094298;28;20287;-86
2023/06/14 03:14:38;;;;;;;9.38;7.30;;;;;;;;;;5094250;28;20478;-86
2023/06/14 03:17:05;;;;;;;9.48;7.47;;;;;;;;;;5095772;28;20419;-86
2023/06/14 03:19:33;;;;;;;9.30;8.02;;;;;;;;;;5094983;28;20066;-86
2023/06/14 03:22:00;;;;;;;8.95;6.72;;;;;;;;;;5094249;28;20069;-86
2023/06/14 03:24:27;;;;;;;8.20;7.03;;;;;;;;;;5094240;28;20044;-86
2023/06/14 03:26:55;;;;;;;11.38;6.93;;;;;;;;;;5095237;28;20356;-86
2023/06/14 03:29:22;;;;;;;7.38;6.72;;;;;;;;;;5094189;28;20055;-86
2023/06/14 03:31:59;;;;;;;7.82;7.15;;;;;;;;;;5095091;28;20048;-85
2023/06/14 03:34:26;;;;;;;9.23;7.18;;;;;;;;;;5094358;28;20048;-86
2023/06/14 03:36:54;;;;;;;8.48;7.60;;;;;;;;;;5094085;28;20047;-86
2023/06/14 03:39:21;;;;;;;8.18;7.10;;;;;;;;;;5093821;28;20466;-85
2023/06/14 03:41:48;;;;;;;7.60;6.75;;;;;;;;;;5093637;28;20040;-86
2023/06/14 03:44:17;;;;;;;8.82;7.93;;;;;;;;;;5098218;28;20081;-86
2023/06/14 03:46:46;;;;;;;8.27;7.57;;;;;;;;;;5095150;28;20051;-86
2023/06/14 03:49:13;;;;;;;9.10;7.38;;;;;;;;;;5093669;28;20131;-86
2023/06/14 03:51:41;;;;;;;8.93;7.55;;;;;;;;;;5094560;28;20063;-86
2023/06/14 03:54:08;;;;;;;9.85;7.47;;;;;;;;;;5093619;28;20064;-86
2023/06/14 03:56:38;;;;;;;10.23;7.35;;;;;;;;;;5093179;28;20048;-86
2023/06/14 03:59:05;;;;;;;12.27;6.93;;;;;;;;;;5093839;28;20485;-86
2023/06/14 04:01:33;;;;;;;9.70;7.28;;;;;;;;;;5093374;28;20105;-86
2023/06/14 04:04:01;;;;;;;7.50;6.75;;;;;;;;;;5093774;28;20048;-85
2023/06/14 04:06:33;;;;;;;7.35;6.65;;;;;;;;;;5093080;28;20408;-86
2023/06/14 04:09:02;;;;;;;8.85;6.90;;;;;;;;;;5093286;28;20055;-86
2023/06/14 04:11:29;;;;;;;9.55;6.75;;;;;;;;;;5092834;28;20051;-86
2023/06/14 04:13:56;;;;;;;8.93;7.22;;;;;;;;;;5093489;28;20098;-86
2023/06/14 04:16:24;;;;;;;9.35;7.40;;;;;;;;;;5093216;28;20076;-86
2023/06/14 04:18:52;;;;;;;9.52;6.90;;;;;;;;;;5093157;28;20056;-86
2023/06/14 04:21:20;;;;;;;10.00;7.50;;;;;;;;;;5093865;28;20471;-85
2023/06/14 04:23:47;;;;;;;9.68;6.97;;;;;;;;;;5094112;28;20060;-86
2023/06/14 04:26:15;;;;;;;10.55;7.05;;;;;;;;;;5093137;28;20048;-86
2023/06/14 04:28:45;;;;;;;10.48;7.22;;;;;;;;;;5093178;28;20125;-86
2023/06/14 04:31:12;;;;;;;7.47;6.68;;;;;;;;;;5093997;28;20142;-86
2023/06/14 04:33:42;;;;;;;8.38;6.70;;;;;;;;;;5092861;28;20044;-85
2023/06/14 04:36:17;;;;;;;8.77;6.97;;;;;;;;;;5092923;28;20066;-86
2023/06/14 04:38:46;;;;;;;7.55;6.38;;;;;;;;;;5094268;28;20048;-86
2023/06/14 04:41:13;;;;;;;7.90;5.88;;;;;;;;;;5093892;28;20043;-86
2023/06/14 04:43:42;;;;;;;8.57;7.28;;;;;;;;;;5092936;28;20122;-86
2023/06/14 04:46:10;;;;;;;8.45;7.03;;;;;;;;;;5092728;28;20051;-86
2023/06/14 04:48:42;;;;;;;11.70;6.75;;;;;;;;;;5092881;28;20048;-86
2023/06/14 04:51:10;;;;;;;8.93;6.70;;;;;;;;;;5092717;28;20408;-86
2023/06/14 04:53:37;;;;;;;6.70;6.00;;;;;;;;;;5093882;28;20060;-86
2023/06/14 04:56:04;;;;;;;8.45;5.78;;;;;;;;;;5092900;28;20471;-86
2023/06/14 04:58:32;;;;;;;8.02;5.55;;;;;;;;;;5093602;28;20195;-86
2023/06/14 05:01:01;;;;;;;7.20;5.85;;;;;;;;;;5102896;28;20052;-85
2023/06/14 05:03:30;;;;;;;13.82;7.47;;;;;;;;;;5092428;28;20063;-85
2023/06/14 05:05:58;;;;;;;12.75;7.03;;;;;;;;;;5092420;28;20044;-86
2023/06/14 05:08:25;;;;;;;13.88;6.90;;;;;;;;;;5092341;28;20078;-84
2023/06/14 05:10:53;;;;;;;16.90;6.35;;;;;;;;;;5092409;28;20408;-84
2023/06/14 05:13:21;;;;;;;13.25;5.82;;;;;;;;;;5092087;28;20339;-84
2023/06/14 05:15:49;;;;;;;20.75;9.40;;;;;;;;;;5091885;28;20040;-84
2023/06/14 05:18:16;;;;;;;28.02;11.40;;;;;;;;;;5093281;28;20080;-84
2023/06/14 05:20:43;;;;;;;22.30;10.85;;;;;;;;;;5092267;28;20047;-83
2023/06/14 05:23:14;;;;;;;22.45;10.27;;;;;;;;;;5091180;28;20050;-83
2023/06/14 05:25:46;;;;;;;22.80;10.82;;;;;;;;;;5090395;28;20153;-84
2023/06/14 05:28:13;;;;;;;24.45;8.60;;;;;;;;;;5092062;28;20052;-84
2023/06/14 05:30:41;;;;;;;12.25;6.30;;;;;;;;;;5091877;28;20072;-85
2023/06/14 05:33:08;;;;;;;14.50;7.10;;;;;;;;;;5090887;28;20063;-85
2023/06/14 05:35:35;;;;;;;4.53;4.00;;;;;;;;;;5091471;28;20135;-85
2023/06/14 05:38:03;;;;;;;6.20;4.13;;;;;;;;;;5091342;28;20480;-85
2023/06/14 05:40:30;;;;;;;5.53;3.75;;;;;;;;;;5091783;28;20555;-85
2023/06/14 05:42:57;;;;;;;7.50;3.80;;;;;;;;;;5091943;28;20121;-85
2023/06/14 05:45:24;;;;;;;7.53;3.55;;;;;;;;;;5093335;28;20048;-85
2023/06/14 05:47:54;;;;;;;7.43;3.50;;;;;;;;;;5092477;28;20052;-85
2023/06/14 05:50:21;;;;;;;4.50;3.22;;;;;;;;;;5092082;28;20135;-86
2023/06/14 05:52:49;;;;;;;3.72;3.33;;;;;;;;;;5091984;28;20105;-86
2023/06/14 05:55:17;;;;;;;3.63;2.95;;;;;;;;;;5092089;28;20123;-86
2023/06/14 05:57:45;;;;;;;7.43;3.22;;;;;;;;;;5092344;28;20048;-85
2023/06/14 06:00:14;;;;;;;4.03;2.80;;;;;;;;;;5092027;28;20090;-86
2023/06/14 06:02:45;;;;;;;3.45;3.00;;;;;;;;;;5091947;28;20420;-86
2023/06/14 06:05:13;;;;;;;3.97;3.20;;;;;;;;;;5092888;28;20416;-87
2023/06/14 06:07:41;;;;;;;3.35;3.00;;;;;;;;;;5075501;28;20074;-87
2023/06/14 06:10:08;;;;;;;3.33;2.80;;;;;;;;;;5092430;28;20496;-86
2023/06/14 06:12:35;;;;;;;6.15;3.03;;;;;;;;;;5092085;28;20109;-86
2023/06/14 06:15:03;;;;;;;4.15;2.92;;;;;;;;;;5096025;28;20078;-87
2023/06/14 06:17:30;;;;;;;8.13;3.05;;;;;;;;;;5106655;28;20052;-86
2023/06/14 06:20:18;;;;;;;5.53;2.75;;;;;;;;;;5092203;28;20066;-86
2023/06/14 06:22:45;;;;;;;6.28;2.45;;;;;;;;;;5091915;28;20055;-87
2023/06/14 06:25:14;;;;;;;7.82;2.72;;;;;;;;;;5091772;28;20048;-85
2023/06/14 06:27:42;;;;;;;4.10;3.10;;;;;;;;;;5092052;28;20071;-86
2023/06/14 06:30:10;;;;;;;7.32;3.00;;;;;;;;;;5090161;28;20044;-86
2023/06/14 06:32:37;;;;;;;4.75;2.90;;;;;;;;;;5091845;28;20060;-85
2023/06/14 06:35:07;;;;;;;5.80;3.65;;;;;;;;;;5092724;28;20048;-87
2023/06/14 06:37:34;;;;;;;3.45;3.05;;;;;;;;;;5096606;28;20404;-86
2023/06/14 06:40:03;;;;;;;3.55;2.80;;;;;;;;;;5095595;28;20051;-86
2023/06/14 06:42:30;;;;;;;4.35;2.83;;;;;;;;;;5095283;28;20047;-85
2023/06/14 06:44:58;;;;;;;4.88;3.25;;;;;;;;;;5095172;28;20040;-84
2023/06/14 06:47:25;;;;;;;7.40;3.35;;;;;;;;;;5095157;28;20052;-84
2023/06/14 06:49:53;;;;;;;3.85;2.78;;;;;;;;;;5095537;28;20077;-86
2023/06/14 06:52:20;;;;;;;3.17;2.90;;;;;;;;;;5095329;28;20101;-85
2023/06/14 06:54:49;;;;;;;6.13;3.05;;;;;;;;;;5095620;28;20048;-87
2023/06/14 06:57:16;;;;;;;4.70;2.95;;;;;;;;;;5095375;28;20411;-87
2023/06/14 06:59:43;;;;;;;5.65;2.97;;;;;;;;;;5095738;28;20048;-85
2023/06/14 07:02:10;;;;;;;4.43;3.30;;;;;;;;;;5093753;28;20048;-86
2023/06/14 07:04:37;;;;;;;2.60;2.40;;;;;;;;;;5095139;28;20048;-87
2023/06/14 07:07:05;;;;;;;2.97;2.70;;;;;;;;;;5094948;28;20052;-85
2023/06/14 07:09:32;;;;;;;2.97;2.70;;;;;;;;;;5094698;28;20700;-86
2023/06/14 07:11:59;;;;;;;4.53;2.58;;;;;;;;;;5094730;28;20109;-86
2023/06/14 07:14:27;;;;;;;5.07;2.45;;;;;;;;;;5094685;28;20044;-85
2023/06/14 07:16:54;;;;;;;3.10;2.28;;;;;;;;;;5094368;28;20180;-86
2023/06/14 07:19:21;;;;;;;4.63;2.60;;;;;;;;;;5094743;28;20052;-85
2023/06/14 07:21:49;;;;;;;7.35;2.50;;;;;;;;;;5094834;28;20101;-87
2023/06/14 07:24:16;;;;;;;2.78;2.38;;;;;;;;;;5094660;28;20062;-86
2023/06/14 07:26:43;;;;;;;7.05;2.30;;;;;;;;;;5095106;28;20054;-88
2023/06/14 07:29:11;;;;;;;5.10;2.97;;;;;;;;;;5095500;28;20145;-86
2023/06/14 07:31:38;;;;;;;3.05;2.30;;;;;;;;;;5099059;28;20056;-88
2023/06/14 07:34:05;;;;;;;4.47;2.50;;;;;;;;;;5101895;28;20512;-88
2023/06/14 07:36:33;;;;;;;5.57;2.05;;;;;;;;;;5097146;28;20071;-90
2023/06/14 07:39:02;;;;;;;4.13;2.72;;;;;;;;;;5098422;28;20075;-87
2023/06/14 07:41:30;;;;;;;2.88;2.15;;;;;;;;;;5094716;28;20052;-84
2023/06/14 07:43:57;;;;;;;4.38;2.15;;;;;;;;;;5095869;28;20052;-86
2023/06/14 07:46:24;;;;;;;2.50;2.30;;;;;;;;;;5095462;28;20040;-88
2023/06/14 07:48:52;;;;;;;3.08;2.20;;;;;;;;;;5097045;28;20048;-86
2023/06/14 07:51:21;;;;;;;4.53;2.22;;;;;;;;;;5097856;28;20044;-88
2023/06/14 07:53:49;;;;;;;2.45;2.28;;;;;;;;;;5095040;28;20044;-94
2023/06/14 07:56:17;;;;;;;2.28;2.03;;;;;;;;;;5094585;28;20048;-90
2023/06/14 07:58:44;;;;;;;3.38;2.42;;;;;;;;;;5094357;28;20048;-86
2023/06/14 08:01:12;;;;;;;2.60;2.40;;;;;;;;;;5094433;28;20431;-88
2023/06/14 08:03:39;;;;;;;5.00;2.30;;;;;;;;;;5094169;28;20048;-87
2023/06/14 08:06:07;;;;;;;2.80;2.60;;;;;;;;;;5094677;28;20050;-89
2023/06/14 08:08:34;;;;;;;3.30;2.30;;;;;;;;;;5094047;28;20048;-86
2023/06/14 08:11:02;;;;;;;2.45;1.95;;;;;;;;;;5094246;28;20071;-87
2023/06/14 08:13:29;;;;;;;6.13;2.45;;;;;;;;;;5094092;28;20071;-86
2023/06/14 08:15:57;;;;;;;4.55;2.13;;;;;;;;;;5094661;28;20052;-89
2023/06/14 08:18:25;;;;;;;5.55;2.78;;;;;;;;;;5094031;28;20048;-89
2023/06/14 08:20:54;;;;;;;2.08;1.98;;;;;;;;;;5095162;28;20072;-89
2023/06/14 08:23:21;;;;;;;5.45;2.28;;;;;;;;;;5093909;28;20105;-89
2023/06/14 08:25:49;;;;;;;5.93;2.10;;;;;;;;;;5094005;28;20456;-89
2023/06/14 08:28:16;;;;;;;3.70;2.03;;;;;;;;;;5093834;28;20052;-88
2023/06/14 08:30:43;;;;;;;2.60;1.83;;;;;;;;;;5093630;28;20070;-87
2023/06/14 08:33:10;;;;;;;5.38;2.05;;;;;;;;;;5093329;28;20080;-87
2023/06/14 08:35:43;;;;;;;6.83;2.00;;;;;;;;;;5093727;28;20052;-85
2023/06/14 08:38:11;;;;;;;4.50;1.95;;;;;;;;;;5093445;28;20052;-88
2023/06/14 08:40:40;;;;;;;4.47;1.90;;;;;;;;;;5093647;28;20134;-85
2023/06/14 08:43:07;;;;;;;2.47;1.70;;;;;;;;;;5092607;28;20139;-87
2023/06/14 08:45:35;;;;;;;1.83;1.73;;;;;;;;;;5093522;28;20050;-87
2023/06/14 08:48:02;;;;;;;1.60;1.50;;;;;;;;;;5105253;28;20051;-87
2023/06/14 08:50:30;;;;;;;2.10;1.90;;;;;;;;;;5094971;28;20460;-90
2023/06/14 08:53:02;;;;;;;3.13;2.40;;;;;;;;;;5093747;28;20074;-87
2023/06/14 08:55:38;;;;;;;4.22;1.90;;;;;;;;;;5093775;28;20055;-87
2023/06/14 08:58:09;;;;;;;1.80;1.70;;;;;;;;;;5093390;28;20048;-88
2023/06/14 09:00:38;;;;;;;4.93;1.77;;;;;;;;;;5092835;28;20044;-89
2023/06/14 09:03:12;;;;;;;3.50;1.80;;;;;;;;;;5093230;28;20048;-85
2023/06/14 09:05:40;;;;;;;2.92;1.60;;;;;;;;;;5094427;28;20047;-88
2023/06/14 09:08:07;;;;;;;4.75;2.20;;;;;;;;;;5093565;28;20101;-90
2023/06/14 09:10:37;;;;;;;3.72;1.73;;;;;;;;;;5093212;28;20113;-88
2023/06/14 09:13:06;;;;;;;2.28;2.08;;;;;;;;;;5093534;28;20052;-88
2023/06/14 09:15:34;;;;;;;2.72;2.17;;;;;;;;;;5093923;28;20058;-90
2023/06/14 09:18:02;;;;;;;2.67;1.65;;;;;;;;;;5092667;28;20048;-88
2023/06/14 09:20:30;;;;;;;4.80;1.67;;;;;;;;;;5093125;28;20048;-88
2023/06/14 09:22:58;;;;;;;2.33;1.80;;;;;;;;;;5092878;28;20052;-92
2023/06/14 09:25:27;;;;;;;3.17;1.80;;;;;;;;;;5093011;28;20052;-88
2023/06/14 09:28:07;;;;;;;3.15;1.85;;;;;;;;;;5093741;28;20055;-86
2023/06/14 09:30:34;;;;;;;3.05;2.10;;;;;;;;;;5092371;28;20040;-88
2023/06/14 09:33:01;;;;;;;3.75;1.63;;;;;;;;;;5093001;28;20060;-91
2023/06/14 09:35:31;;;;;;;4.32;1.70;;;;;;;;;;5093457;28;20066;-92
2023/06/14 09:37:58;;;;;;;3.25;1.50;;;;;;;;;;5093167;28;20492;-89
2023/06/14 09:40:26;;;;;;;2.88;1.60;;;;;;;;;;5093562;28;20504;-89
2023/06/14 09:42:53;;;;;;;2.55;2.00;;;;;;;;;;5092363;28;20052;-87
2023/06/14 09:45:21;;;;;;;3.83;1.98;;;;;;;;;;5092955;28;20059;-86
2023/06/14 09:47:52;;;;;;;3.03;1.70;;;;;;;;;;5093128;28;20051;-91
2023/06/14 09:50:33;;;;;;;5.13;1.73;;;;;;;;;;5093329;28;20086;-92
2023/06/14 09:53:04;;;;;;;5.25;2.03;;;;;;;;;;5093284;28;20468;-87
2023/06/14 09:55:31;;;;;;;2.85;1.80;;;;;;;;;;5093210;28;20054;-88
2023/06/14 09:58:00;;;;;;;3.28;1.58;;;;;;;;;;5094658;28;20044;-87
2023/06/14 10:00:28;;;;;;;2.70;2.05;;;;;;;;;;5093405;28;20176;-88
2023/06/14 10:02:59;;;;;;;2.65;1.73;;;;;;;;;;5101876;28;20044;-89
2023/06/14 10:05:28;;;;;;;1.88;1.63;;;;;;;;;;5102837;28;20056;-89
2023/06/14 10:08:07;;;;;;;3.83;1.63;;;;;;;;;;5095859;28;20055;-93
2023/06/14 10:10:34;;;;;;;3.17;1.65;;;;;;;;;;5094761;28;20056;-89
2023/06/14 10:13:02;;;;;;;5.47;1.70;;;;;;;;;;5096628;28;20068;-88
2023/06/14 10:15:33;;;;;;;4.35;1.60;;;;;;;;;;5096778;28;20048;-89
2023/06/14 10:18:04;;;;;;;4.78;1.60;;;;;;;;;;5096230;28;20098;-93
2023/06/14 10:20:37;;;;;;;9.27;2.03;;;;;;;;;;5096354;28;20151;-92
2023/06/14 10:23:17;;;;;;;3.00;1.50;;;;;;;;;;5096517;28;20075;-89
2023/06/14 10:25:44;;;;;;;5.78;1.70;;;;;;;;;;5096477;28;20105;-89
2023/06/14 10:28:17;;;;;;;8.45;7.85;;;;;;;;;;5096393;28;20052;-89
2023/06/14 10:30:45;;;;;;;;;;;;;;;;;;5096434;28;20056;-86
2023/06/14 10:33:15;;;;;;;6.00;1.80;;;;;;;;;;5095569;28;19930;-89
2023/06/14 10:36:07;;;;;;;1.75;1.65;;;;;;;;;;5096303;28;20540;-87
2023/06/14 10:38:35;;;;;;;3.00;1.70;;;;;;;;;;5096346;28;20479;-87
2023/06/14 10:41:03;;;;;;;5.13;1.92;;;;;;;;;;5095964;28;20048;-89
2023/06/14 10:43:30;;;;;;;6.10;1.73;;;;;;;;;;5095505;28;20484;-85
2023/06/14 10:46:12;;;;;;;4.70;1.80;;;;;;;;;;5096137;28;20086;-89
2023/06/14 10:48:44;;;;;;;2.22;2.00;;;;;;;;;;5095718;28;20044;-84
2023/06/14 10:51:20;;;;;;;3.60;1.60;;;;;;;;;;5095774;28;20044;-87
2023/06/14 10:53:48;;;;;;;3.05;1.70;;;;;;;;;;5095820;28;20087;-88
2023/06/14 10:56:31;;;;;;;3.00;1.80;;;;;;;;;;5095404;28;20058;-85
2023/06/14 10:58:58;;;;;;;2.83;1.60;;;;;;;;;;5095316;28;20052;-90
2023/06/14 11:01:43;;;;;;;2.40;1.90;;;;;;;;;;5095961;28;20458;-88
2023/06/14 11:04:11;;;;;;;1.80;1.70;;;;;;;;;;5098294;28;20067;-93
2023/06/14 11:06:49;;;;;;;4.22;1.90;;;;;;;;;;5097078;28;20404;-88
2023/06/14 11:09:25;;;;;;;2.45;2.00;;;;;;;;;;5095850;28;20052;-88
2023/06/14 11:11:54;;;;;;;9.32;2.13;;;;;;;;;;5095785;28;20071;-89
2023/06/14 11:14:21;;;;;;;2.45;1.80;;;;;;;;;;5095686;28;20080;-93
2023/06/14 11:16:51;;;;;;;7.10;2.10;;;;;;;;;;5094987;28;20078;-86
2023/06/14 11:19:19;;;;;;;5.18;2.03;;;;;;;;;;5099494;28;20477;-87
2023/06/14 11:21:49;;;;;;;2.30;1.60;;;;;;;;;;5102897;28;20052;-87
2023/06/14 11:24:17;;;;;;;3.95;1.90;;;;;;;;;;5094571;28;20047;-88
2023/06/14 11:26:45;;;;;;;4.65;1.90;;;;;;;;;;5095237;28;20095;-88
2023/06/14 11:29:12;;;;;;;2.78;1.77;;;;;;;;;;5095377;28;20553;-88
2023/06/14 11:31:44;;;;;;;7.43;2.10;;;;;;;;;;5094559;28;20109;-88
2023/06/14 11:34:12;;;;;;;4.88;1.90;;;;;;;;;;5095681;28;20078;-91
2023/06/14 11:36:41;;;;;;;2.65;1.80;;;;;;;;;;5095627;28;20044;-91
2023/06/14 11:39:16;;;;;;;5.07;2.30;;;;;;;;;;5096998;28;20048;-90
2023/06/14 11:41:44;;;;;;;3.05;1.73;;;;;;;;;;5095353;28;20047;-90
2023/06/14 11:44:12;;;;;;;2.67;1.80;;;;;;;;;;5094706;28;20409;-89
2023/06/14 11:46:40;;;;;;;4.13;1.58;;;;;;;;;;5094751;28;20411;-88
2023/06/14 11:49:08;;;;;;;6.97;2.05;;;;;;;;;;5095255;28;20052;-88
2023/06/14 11:51:36;;;;;;;10.27;2.60;;;;;;;;;;5094844;28;20048;-87
2023/06/14 11:54:05;;;;;;;11.73;2.55;;;;;;;;;;5094755;28;20060;-91
2023/06/14 11:56:32;;;;;;;8.60;3.30;;;;;;;;;;5094870;28;20059;-86
2023/06/14 11:59:00;;;;;;;7.43;2.00;;;;;;;;;;5094914;28;20056;-90
2023/06/14 12:01:27;;;;;;;5.55;2.10;;;;;;;;;;5094359;28;20449;-91
2023/06/14 12:03:55;;;;;;;3.00;1.90;;;;;;;;;;5094897;28;20047;-86
2023/06/14 12:06:32;;;;;;;6.45;1.88;;;;;;;;;;5095793;28;20071;-92
2023/06/14 12:09:01;;;;;;;6.57;1.90;;;;;;;;;;5094567;28;20546;-90
2023/06/14 12:11:33;;;;;;;6.07;2.40;;;;;;;;;;5097355;28;20067;-88
2023/06/14 12:14:01;;;;;;;2.13;1.60;;;;;;;;;;5095486;28;20088;-90
2023/06/14 12:16:33;;;;;;;1.90;1.80;;;;;;;;;;5094822;28;20066;-91
2023/06/14 12:19:09;;;;;;;2.35;1.95;;;;;;;;;;5095888;28;20467;-87
2023/06/14 12:21:40;;;;;;;3.20;2.03;;;;;;;;;;5095442;28;20062;-89
2023/06/14 12:24:07;;;;;;;2.45;1.75;;;;;;;;;;5095124;28;20480;-86
2023/06/14 12:26:38;;;;;;;4.72;1.70;;;;;;;;;;5094631;28;20356;-91
2023/06/14 12:29:07;;;;;;;4.30;1.80;;;;;;;;;;5094209;28;20121;-89
2023/06/14 12:31:34;;;;;;;3.95;1.85;;;;;;;;;;5093549;28;20162;-89
2023/06/14 12:34:01;;;;;;;4.57;1.90;;;;;;;;;;5100485;28;20048;-89
2023/06/14 12:36:29;;;;;;;3.22;2.10;;;;;;;;;;5103099;28;20636;-90
2023/06/14 12:38:56;;;;;;;2.30;2.10;;;;;;;;;;5104343;28;20048;-89
2023/06/14 12:41:24;;;;;;;2.45;1.50;;;;;;;;;;5093732;28;20067;-86
2023/06/14 12:43:51;;;;;;;4.57;1.50;;;;;;;;;;5094769;28;20078;-89
2023/06/14 12:46:18;;;;;;;4.47;2.05;;;;;;;;;;5093429;28;20381;-90
2023/06/14 12:48:46;;;;;;;6.55;1.77;;;;;;;;;;5093825;28;20101;-91
2023/06/14 12:51:13;;;;;;;3.55;1.95;;;;;;;;;;5093456;28;20048;-88
2023/06/14 12:53:41;;;;;;;3.15;1.70;;;;;;;;;;5093651;28;20048;-88
2023/06/14 12:56:08;;;;;;;2.53;1.38;;;;;;;;;;5093611;28;20109;-89
2023/06/14 12:58:35;;;;;;;3.50;1.75;;;;;;;;;;5093452;28;20044;-90
2023/06/14 13:01:02;;;;;;;1.83;1.60;;;;;;;;;;5093103;28;20058;-89
2023/06/14 13:03:30;;;;;;;2.80;1.67;;;;;;;;;;5093319;28;20105;-89
2023/06/14 13:05:57;;;;;;;3.22;1.88;;;;;;;;;;5094332;28;20054;-88
2023/06/14 13:08:25;;;;;;;2.20;2.00;;;;;;;;;;5093704;28;20076;-93
2023/06/14 13:10:52;;;;;;;5.43;1.83;;;;;;;;;;5094757;28;20052;-87
2023/06/14 13:13:20;;;;;;;6.45;2.00;;;;;;;;;;5094819;28;20428;-90
2023/06/14 13:15:49;;;;;;;2.17;1.70;;;;;;;;;;5093919;28;20109;-91
2023/06/14 13:18:17;;;;;;;2.72;1.77;;;;;;;;;;5093857;28;20048;-90
2023/06/14 13:20:45;;;;;;;10.60;2.63;;;;;;;;;;5076816;28;20059;-91
2023/06/14 13:23:13;;;;;;;8.93;2.05;;;;;;;;;;5093231;28;20052;-85
2023/06/14 13:25:40;;;;;;;3.28;1.67;;;;;;;;;;5093166;28;20500;-88
2023/06/14 13:28:08;;;;;;;3.63;1.88;;;;;;;;;;5093507;28;20101;-87
2023/06/14 13:30:35;;;;;;;1.77;1.67;;;;;;;;;;5093069;28;20071;-87
2023/06/14 13:33:05;;;;;;;3.17;1.95;;;;;;;;;;5093129;28;20056;-87
2023/06/14 13:35:32;;;;;;;1.88;1.77;;;;;;;;;;5093236;28;20078;-88
2023/06/14 13:38:00;;;;;;;1.70;1.60;;;;;;;;;;5093142;28;20048;-92
2023/06/14 13:40:27;;;;;;;3.00;1.73;;;;;;;;;;5093166;28;20484;-87
2023/06/14 13:42:54;;;;;;;2.00;1.73;;;;;;;;;;5093162;28;20048;-87
2023/06/14 13:45:21;;;;;;;4.40;2.10;;;;;;;;;;5092079;28;20093;-90
2023/06/14 13:47:49;;;;;;;4.32;1.90;;;;;;;;;;5093013;28;20048;-88
2023/06/14 13:50:17;;;;;;;3.38;1.90;;;;;;;;;;5092698;28;20052;-89
2023/06/14 13:52:45;;;;;;;1.92;1.65;;;;;;;;;;5092800;28;20135;-92
2023/06/14 13:55:12;;;;;;;4.88;1.52;;;;;;;;;;5107102;28;20104;-86
2023/06/14 13:57:39;;;;;;;2.17;2.05;;;;;;;;;;5093574;28;20439;-87
2023/06/14 14:00:08;;;;;;;5.65;2.00;;;;;;;;;;5093172;28;20044;-87
2023/06/14 14:02:35;;;;;;;1.98;1.88;;;;;;;;;;5093160;28;20070;-88
2023/06/14 14:05:03;;;;;;;4.03;1.70;;;;;;;;;;5092181;28;20052;-87
2023/06/14 14:07:30;;;;;;;4.05;2.10;;;;;;;;;;5092388;28;20052;-87
2023/06/14 14:09:58;;;;;;;2.88;1.60;;;;;;;;;;5092359;28;20056;-85
2023/06/14 14:12:25;;;;;;;3.13;1.77;;;;;;;;;;5092431;28;20528;-86
2023/06/14 14:14:52;;;;;;;1.75;1.65;;;;;;;;;;5092589;28;20056;-87
2023/06/14 14:17:19;;;;;;;1.88;1.75;;;;;;;;;;5092658;28;20492;-86
2023/06/14 14:19:47;;;;;;;2.03;1.92;;;;;;;;;;5092158;28;20507;-87
2023/06/14 14:22:14;;;;;;;4.72;1.70;;;;;;;;;;5093182;28;20059;-85
2023/06/14 14:24:42;;;;;;;2.13;1.92;;;;;;;;;;5092215;28;20121;-86
2023/06/14 14:27:09;;;;;;;1.80;1.70;;;;;;;;;;5093208;28;20048;-85
2023/06/14 14:29:37;;;;;;;3.78;1.80;;;;;;;;;;5092601;28;20048;-86
2023/06/14 14:32:04;;;;;;;4.25;1.73;;;;;;;;;;5093763;28;20087;-90
2023/06/14 14:34:32;;;;;;;5.32;1.98;;;;;;;;;;5076782;28;20055;-87
2023/06/14 14:36:59;;;;;;;2.67;2.00;;;;;;;;;;5093305;28;20066;-91
2023/06/14 14:39:27;;;;;;;3.67;1.98;;;;;;;;;;5096422;28;20087;-88
2023/06/14 14:41:54;;;;;;;1.65;1.55;;;;;;;;;;5092303;28;20646;-85
2023/06/14 14:44:21;;;;;;;2.58;1.80;;;;;;;;;;5092527;28;20055;-87
2023/06/14 14:46:48;;;;;;;1.75;1.65;;;;;;;;;;5093072;28;20485;-86
2023/06/14 14:49:16;;;;;;;2.72;2.10;;;;;;;;;;5093031;28;20054;-87
2023/06/14 14:51:43;;;;;;;3.60;1.70;;;;;;;;;;5092546;28;20047;-87